Time;durP1;ratioP1;P1;durP2;ratioP2;P2;SDS_P1;SDS_P2;PMS_P1;PMS_P2;Temp;Humidity;BMP_temperature;BMP_pressure;BME280_temperature;BME280_humidity;BME280_pressure;Samples;Min_cycle;Max_cycle;Signal;HPM_P1;HPM_P2
2021/03/21 00:00:24;;;;;;;179.27;76.47;;;3.90;97.90;;;;;;4974861;28;20477;-65
2021/03/21 00:02:50;;;;;;;168.93;77.43;;;3.90;97.90;;;;;;4976712;28;20074;-76
2021/03/21 00:05:16;;;;;;;183.60;82.55;;;3.90;97.30;;;;;;4977780;28;20035;-74
2021/03/21 00:07:42;;;;;;;76.57;42.60;;;3.90;97.50;;;;;;4977444;28;20031;-74
2021/03/21 00:10:09;;;;;;;62.15;40.25;;;3.90;97.20;;;;;;4977184;28;20023;-74
2021/03/21 00:12:35;;;;;;;83.82;50.38;;;3.70;97.80;;;;;;4979145;28;20055;-72
2021/03/21 00:15:00;;;;;;;75.57;46.30;;;3.70;97.50;;;;;;4977012;28;20026;-67
2021/03/21 00:17:27;;;;;;;91.82;51.53;;;3.70;97.70;;;;;;4974740;28;20058;-75
2021/03/21 00:19:52;;;;;;;125.43;62.38;;;3.80;98.20;;;;;;4976505;28;20023;-65
2021/03/21 00:22:18;;;;;;;83.45;46.70;;;3.70;98.10;;;;;;4975838;28;20034;-75
2021/03/21 00:24:44;;;;;;;70.00;43.28;;;3.70;98.40;;;;;;4975669;28;20023;-71
2021/03/21 00:27:10;;;;;;;103.35;64.43;;;3.70;98.30;;;;;;4976010;28;20023;-74
2021/03/21 00:29:37;;;;;;;117.97;70.88;;;3.70;97.50;;;;;;4976239;28;20019;-65
2021/03/21 00:32:03;;;;;;;118.55;66.63;;;3.60;97.60;;;;;;4976199;28;20473;-67
2021/03/21 00:34:29;;;;;;;156.57;76.97;;;3.50;97.50;;;;;;4974785;28;20023;-65
2021/03/21 00:36:55;;;;;;;136.50;69.72;;;3.30;97.50;;;;;;4974806;28;20362;-75
2021/03/21 00:39:21;;;;;;;160.15;83.43;;;3.30;97.70;;;;;;4975949;28;20034;-65
2021/03/21 00:41:47;;;;;;;124.47;67.72;;;3.30;98.40;;;;;;4974892;28;20054;-75
2021/03/21 00:44:13;;;;;;;87.88;48.20;;;3.30;98.10;;;;;;4975140;28;20114;-69
2021/03/21 00:46:39;;;;;;;74.47;43.50;;;3.20;98.00;;;;;;4974900;28;20022;-65
2021/03/21 00:49:05;;;;;;;76.80;43.72;;;3.20;98.20;;;;;;4975195;28;20093;-75
2021/03/21 00:51:31;;;;;;;67.75;42.10;;;3.20;98.40;;;;;;4978085;28;20497;-68
2021/03/21 00:53:56;;;;;;;80.15;46.00;;;3.10;98.80;;;;;;4978701;28;20047;-74
2021/03/21 00:56:31;;;;;;;66.13;40.72;;;3.00;99.30;;;;;;4978753;28;20023;-68
2021/03/21 00:58:58;;;;;;;103.38;52.08;;;2.90;99.60;;;;;;4979645;28;20086;-74
2021/03/21 01:01:25;;;;;;;70.88;39.17;;;2.80;99.90;;;;;;4978604;28;20487;-74
2021/03/21 01:03:51;;;;;;;82.90;45.30;;;2.80;99.90;;;;;;4978719;28;20031;-67
2021/03/21 01:06:17;;;;;;;115.32;56.25;;;2.90;99.90;;;;;;4979781;28;20058;-67
2021/03/21 01:08:43;;;;;;;145.63;68.70;;;2.90;99.90;;;;;;4978486;28;20031;-75
2021/03/21 01:11:17;;;;;;;99.18;47.58;;;2.90;99.90;;;;;;4978786;28;20026;-66
2021/03/21 01:13:44;;;;;;;179.13;77.60;;;2.80;99.90;;;;;;4979550;28;20019;-68
2021/03/21 01:16:22;;;;;;;95.05;53.05;;;2.80;99.90;;;;;;4980453;28;20037;-67
2021/03/21 01:18:50;;;;;;;63.67;38.83;;;2.80;99.90;;;;;;4979249;28;20038;-76
2021/03/21 01:21:16;;;;;;;82.57;45.90;;;2.90;99.90;;;;;;4978011;28;20027;-75
2021/03/21 01:23:43;;;;;;;90.03;47.13;;;2.90;99.90;;;;;;4979803;28;20030;-68
2021/03/21 01:26:12;;;;;;;66.22;36.75;;;2.90;99.90;;;;;;4979646;28;20026;-74
2021/03/21 01:28:39;;;;;;;59.13;34.53;;;2.90;99.90;;;;;;4981004;28;20038;-70
2021/03/21 01:31:08;;;;;;;74.15;42.55;;;2.90;99.90;;;;;;4979437;28;20511;-75
2021/03/21 01:33:35;;;;;;;92.90;49.90;;;2.90;99.90;;;;;;4979028;28;20373;-75
2021/03/21 01:36:05;;;;;;;87.85;51.13;;;2.90;99.70;;;;;;4978904;28;20042;-65
2021/03/21 01:38:31;;;;;;;73.28;40.60;;;2.90;99.40;;;;;;4978818;28;20050;-67
2021/03/21 01:41:00;;;;;;;68.28;40.75;;;3.00;99.90;;;;;;4978077;28;20525;-74
2021/03/21 01:43:31;;;;;;;64.80;39.17;;;3.00;99.30;;;;;;4981280;28;20027;-68
2021/03/21 01:45:58;;;;;;;65.90;41.03;;;2.90;99.40;;;;;;4978389;28;20030;-71
2021/03/21 01:48:32;;;;;;;71.43;42.25;;;2.90;99.30;;;;;;4979353;28;20023;-71
2021/03/21 01:51:00;;;;;;;68.45;38.97;;;2.90;99.40;;;;;;4978574;28;20055;-68
2021/03/21 01:53:30;;;;;;;62.53;37.00;;;2.90;99.30;;;;;;4977658;28;20027;-69
2021/03/21 01:55:57;;;;;;;52.58;32.45;;;2.90;99.20;;;;;;4978412;28;20101;-68
2021/03/21 01:58:25;;;;;;;50.28;33.60;;;2.90;99.20;;;;;;4978621;28;20373;-75
2021/03/21 02:00:56;;;;;;;50.53;33.85;;;2.90;99.20;;;;;;4977531;28;20031;-66
2021/03/21 02:03:23;;;;;;;59.97;37.58;;;2.70;99.20;;;;;;4976078;28;20512;-66
2021/03/21 02:05:54;;;;;;;59.90;36.58;;;2.70;99.60;;;;;;4977056;28;20090;-68
2021/03/21 02:08:59;;;;;;;50.35;32.13;;;2.60;99.60;;;;;;4979128;28;20022;-68
2021/03/21 02:11:31;;;;;;;51.15;32.38;;;2.60;99.80;;;;;;4977769;28;20386;-69
2021/03/21 02:14:12;;;;;;;44.70;29.42;;;2.50;99.80;;;;;;4978378;28;20030;-76
2021/03/21 02:16:42;;;;;;;48.65;31.65;;;2.60;99.90;;;;;;4977165;28;20054;-68
2021/03/21 02:19:16;;;;;;;47.60;30.25;;;2.50;99.90;;;;;;4976872;28;20030;-71
2021/03/21 02:21:54;;;;;;;46.95;31.52;;;2.50;99.90;;;;;;4977520;28;20030;-66
2021/03/21 02:24:29;;;;;;;43.58;29.17;;;2.50;99.90;;;;;;4976639;28;20039;-73
2021/03/21 02:27:32;;;;;;;45.53;30.67;;;2.40;99.90;;;;;;4977147;28;20373;-71
2021/03/21 02:30:35;;;;;;;46.20;29.63;;;2.40;99.90;;;;;;4977522;28;20031;-66
2021/03/21 02:33:15;;;;;;;48.92;29.98;;;2.30;99.90;;;;;;4977041;28;20501;-71
2021/03/21 02:35:59;;;;;;;43.08;28.45;;;2.30;99.90;;;;;;4976372;28;20033;-71
2021/03/21 02:38:35;;;;;;;48.90;30.73;;;2.40;99.90;;;;;;4977040;28;20086;-76
2021/03/21 02:41:10;;;;;;;49.38;32.35;;;2.40;99.90;;;;;;4976532;28;20045;-76
2021/03/21 02:43:57;;;;;;;50.63;33.05;;;2.30;99.90;;;;;;4978269;28;20539;-76
2021/03/21 02:46:32;;;;;;;60.10;37.92;;;2.20;99.90;;;;;;4977845;28;20544;-66
2021/03/21 02:49:28;;;;;;;63.08;36.22;;;2.20;99.90;;;;;;4977867;28;20030;-75
2021/03/21 02:52:08;;;;;;;53.85;34.20;;;2.10;99.90;;;;;;4973839;28;20077;-67
2021/03/21 02:55:03;;;;;;;45.17;28.27;;;2.10;99.90;;;;;;4977998;28;20066;-71
2021/03/21 02:57:36;;;;;;;46.03;28.80;;;2.10;99.90;;;;;;4978517;28;20018;-76
2021/03/21 03:00:07;;;;;;;42.13;27.77;;;2.00;99.90;;;;;;4977111;28;20114;-70
2021/03/21 03:02:47;;;;;;;41.63;27.38;;;2.00;99.90;;;;;;4976321;28;20031;-65
2021/03/21 03:05:24;;;;;;;42.50;27.98;;;2.00;99.90;;;;;;4976812;28;20065;-67
2021/03/21 03:08:02;;;;;;;48.47;31.35;;;2.10;99.90;;;;;;4976271;28;20033;-66
2021/03/21 03:10:30;;;;;;;75.18;46.97;;;2.10;99.90;;;;;;4976919;28;20122;-68
2021/03/21 03:13:04;;;;;;;65.22;40.40;;;2.10;99.90;;;;;;4977768;28;20023;-74
2021/03/21 03:15:30;;;;;;;49.30;31.60;;;2.10;99.90;;;;;;4976645;28;20033;-65
2021/03/21 03:18:16;;;;;;;42.75;27.90;;;2.10;99.90;;;;;;4976428;28;20064;-76
2021/03/21 03:20:52;;;;;;;41.30;26.73;;;2.10;99.90;;;;;;4975835;28;20031;-65
2021/03/21 03:23:38;;;;;;;38.70;27.33;;;2.10;99.90;;;;;;4976402;28;20030;-66
2021/03/21 03:26:22;;;;;;;41.08;26.67;;;2.20;99.90;;;;;;4974431;28;20023;-76
2021/03/21 03:29:07;;;;;;;38.03;26.63;;;2.30;99.80;;;;;;4976603;28;20054;-73
2021/03/21 03:31:40;;;;;;;40.67;27.45;;;2.20;99.80;;;;;;4977254;28;20031;-76
2021/03/21 03:34:06;;;;;;;42.97;27.95;;;2.20;99.90;;;;;;4978782;28;20038;-75
2021/03/21 03:36:33;;;;;;;44.97;27.67;;;2.10;99.70;;;;;;4980576;28;20408;-67
2021/03/21 03:39:00;;;;;;;39.45;25.75;;;2.10;99.90;;;;;;4978082;28;20027;-67
2021/03/21 03:41:44;;;;;;;39.42;26.50;;;2.10;99.90;;;;;;4975259;28;20062;-75
2021/03/21 03:44:38;;;;;;;41.10;27.00;;;2.10;99.90;;;;;;4975471;28;20026;-66
2021/03/21 03:47:14;;;;;;;36.63;24.92;;;2.00;99.90;;;;;;4977129;28;20034;-76
2021/03/21 03:49:55;;;;;;;42.63;26.52;;;2.10;99.80;;;;;;4975970;28;20025;-70
2021/03/21 03:53:09;;;;;;;41.90;26.08;;;2.00;99.80;;;;;;4973843;28;20047;-68
2021/03/21 03:55:57;;;;;;;39.58;24.58;;;2.00;99.60;;;;;;4977548;28;20101;-69
2021/03/21 03:58:52;;;;;;;41.13;26.83;;;2.00;99.90;;;;;;4976024;28;20019;-75
2021/03/21 04:01:36;;;;;;;36.45;24.95;;;2.00;99.40;;;;;;4959639;28;20035;-68
2021/03/21 04:04:21;;;;;;;44.65;27.50;;;2.00;99.50;;;;;;4975947;28;20074;-67
2021/03/21 04:07:03;;;;;;;53.38;33.00;;;2.00;99.90;;;;;;4975658;28;20074;-76
2021/03/21 04:09:47;;;;;;;44.63;27.50;;;2.00;99.40;;;;;;4973609;28;20074;-76
2021/03/21 04:12:16;;;;;;;43.13;26.35;;;1.90;99.70;;;;;;4976017;28;20086;-68
2021/03/21 04:14:57;;;;;;;47.38;26.95;;;1.90;99.70;;;;;;4975935;28;20023;-68
2021/03/21 04:17:47;;;;;;;56.42;30.92;;;1.90;99.90;;;;;;4975307;28;20030;-67
2021/03/21 04:20:21;;;;;;;45.13;28.13;;;1.80;99.90;;;;;;4975245;28;20050;-76
2021/03/21 04:23:01;;;;;;;52.00;31.65;;;1.70;99.90;;;;;;4975631;28;20022;-74
2021/03/21 04:25:32;;;;;;;48.90;29.58;;;1.70;99.90;;;;;;4977613;28;20027;-70
2021/03/21 04:28:00;;;;;;;62.95;33.53;;;1.80;99.90;;;;;;4981640;28;20421;-68
2021/03/21 04:30:34;;;;;;;52.92;29.17;;;1.80;99.70;;;;;;4980591;28;20113;-77
2021/03/21 04:33:04;;;;;;;47.22;27.90;;;1.80;99.90;;;;;;4978148;28;20022;-65
2021/03/21 04:35:35;;;;;;;42.92;25.67;;;2.00;99.90;;;;;;4978121;28;20035;-76
2021/03/21 04:38:07;;;;;;;43.63;26.38;;;1.90;99.70;;;;;;4982085;28;20035;-76
2021/03/21 04:40:35;;;;;;;46.30;26.65;;;1.90;99.50;;;;;;4981394;28;20031;-73
2021/03/21 04:43:15;;;;;;;44.85;26.13;;;1.80;99.30;;;;;;4983440;28;20038;-71
2021/03/21 04:45:49;;;;;;;41.53;26.67;;;1.90;99.70;;;;;;4979977;28;20038;-76
2021/03/21 04:48:19;;;;;;;37.05;24.20;;;1.90;99.30;;;;;;4980355;28;20027;-69
2021/03/21 04:50:47;;;;;;;34.63;22.20;;;1.60;99.70;;;;;;4982006;28;20042;-69
2021/03/21 04:53:18;;;;;;;33.05;21.65;;;1.60;99.90;;;;;;4981899;28;20118;-68
2021/03/21 04:55:51;;;;;;;36.20;21.88;;;1.50;99.90;;;;;;4978973;28;20437;-75
2021/03/21 04:58:48;;;;;;;32.13;21.00;;;1.40;99.90;;;;;;4980179;28;20384;-75
2021/03/21 05:01:41;;;;;;;40.58;24.65;;;1.60;99.90;;;;;;4971176;28;20133;-75
2021/03/21 05:04:14;;;;;;;38.80;25.33;;;1.60;99.90;;;;;;4960503;28;20023;-67
2021/03/21 05:07:11;;;;;;;45.97;28.33;;;1.70;99.90;;;;;;4979573;28;20023;-75
2021/03/21 05:09:48;;;;;;;48.13;30.05;;;1.70;99.90;;;;;;4979963;28;20106;-74
2021/03/21 05:12:38;;;;;;;47.15;28.25;;;1.70;99.80;;;;;;4980833;28;20572;-71
2021/03/21 05:15:21;;;;;;;42.28;25.33;;;1.80;99.90;;;;;;4979681;28;20023;-75
2021/03/21 05:17:56;;;;;;;48.95;30.77;;;1.80;99.90;;;;;;4980357;28;20027;-74
2021/03/21 05:20:38;;;;;;;62.65;37.35;;;1.90;99.50;;;;;;4980410;28;20030;-65
2021/03/21 05:23:22;;;;;;;64.07;38.80;;;1.80;99.30;;;;;;4978935;28;20019;-68
2021/03/21 05:26:00;;;;;;;59.55;35.28;;;1.70;99.00;;;;;;4980853;28;20034;-74
2021/03/21 05:28:28;;;;;;;42.15;26.20;;;1.70;99.20;;;;;;4980708;28;20077;-75
2021/03/21 05:30:54;;;;;;;44.88;27.08;;;1.80;99.30;;;;;;4978522;28;20029;-74
2021/03/21 05:33:20;;;;;;;41.97;25.65;;;1.90;99.40;;;;;;4978229;28;20114;-76
2021/03/21 05:35:46;;;;;;;35.03;23.02;;;1.90;99.30;;;;;;4977671;28;20101;-72
2021/03/21 05:38:40;;;;;;;42.97;25.08;;;1.80;99.10;;;;;;4977343;28;20015;-65
2021/03/21 05:41:45;;;;;;;46.38;29.83;;;1.80;99.20;;;;;;4978953;28;20421;-72
2021/03/21 05:44:28;;;;;;;36.25;24.00;;;1.90;99.00;;;;;;4978690;28;20078;-68
2021/03/21 05:47:32;;;;;;;34.60;21.63;;;1.90;99.30;;;;;;4981020;28;20023;-66
2021/03/21 05:50:39;;;;;;;37.45;24.38;;;2.00;98.70;;;;;;4980692;28;20492;-74
2021/03/21 05:53:26;;;;;;;44.22;27.15;;;2.00;99.20;;;;;;4961318;28;20085;-76
2021/03/21 05:56:30;;;;;;;43.95;27.10;;;2.10;98.80;;;;;;4980163;28;20029;-76
2021/03/21 05:59:47;;;;;;;43.45;27.40;;;2.00;98.60;;;;;;4939708;29;20127;-75
2021/03/21 06:02:47;;;;;;;45.17;27.52;;;1.90;98.30;;;;;;4881367;29;20041;-68
2021/03/21 06:05:31;;;;;;;45.78;27.20;;;2.10;98.40;;;;;;4881495;29;20044;-72
2021/03/21 06:08:22;;;;;;;53.75;30.50;;;2.20;98.40;;;;;;4881309;29;20524;-76
2021/03/21 06:10:57;;;;;;;47.65;28.15;;;2.30;98.40;;;;;;4881131;29;20033;-67
2021/03/21 06:13:40;;;;;;;46.50;27.40;;;2.20;98.00;;;;;;4881186;29;20524;-76
2021/03/21 06:16:51;;;;;;;50.95;30.08;;;2.10;97.70;;;;;;4881107;29;20033;-66
2021/03/21 06:19:43;;;;;;;48.85;28.42;;;2.20;98.40;;;;;;4855008;29;20392;-76
2021/03/21 06:22:12;;;;;;;63.50;34.67;;;2.20;98.80;;;;;;4883880;29;20516;-74
2021/03/21 06:25:16;;;;;;;42.28;26.77;;;2.40;98.60;;;;;;4881759;29;20037;-75
2021/03/21 06:28:01;;;;;;;49.45;31.08;;;2.20;98.40;;;;;;4860545;29;20048;-68
2021/03/21 06:30:42;;;;;;;53.43;35.23;;;2.40;98.30;;;;;;4883039;29;20400;-68
2021/03/21 06:33:39;;;;;;;44.75;28.75;;;2.30;98.20;;;;;;4880717;29;20669;-75
2021/03/21 06:36:24;;;;;;;38.88;23.70;;;2.00;98.40;;;;;;4925443;28;20560;-75
2021/03/21 06:39:17;;;;;;;50.92;33.50;;;2.10;98.00;;;;;;4976949;28;20469;-69
2021/03/21 06:42:21;;;;;;;45.92;30.25;;;2.10;98.10;;;;;;4974663;28;20031;-69
2021/03/21 06:45:21;;;;;;;60.42;38.83;;;2.10;98.60;;;;;;4936432;29;20039;-68
2021/03/21 06:47:50;;;;;;;50.42;32.65;;;2.10;99.00;;;;;;4936649;29;20043;-74
2021/03/21 06:50:16;;;;;;;50.10;32.60;;;1.80;98.70;;;;;;4935318;29;20144;-75
2021/03/21 06:53:09;;;;;;;50.72;32.67;;;1.90;99.00;;;;;;4938305;29;20052;-68
2021/03/21 06:55:41;;;;;;;53.47;37.30;;;1.80;99.00;;;;;;4937655;29;20032;-67
2021/03/21 06:58:13;;;;;;;88.78;62.10;;;1.90;99.80;;;;;;4938491;29;20114;-65
2021/03/21 07:00:48;;;;;;;109.53;51.75;;;1.90;99.90;;;;;;4938816;29;20036;-67
2021/03/21 07:03:45;;;;;;;54.00;35.30;;;2.00;99.90;;;;;;4939223;29;20035;-74
2021/03/21 07:06:29;;;;;;;83.20;40.70;;;2.10;99.80;;;;;;4939590;29;20438;-65
2021/03/21 07:09:08;;;;;;;95.63;45.03;;;1.80;99.90;;;;;;4935505;29;20031;-68
2021/03/21 07:11:49;;;;;;;64.25;36.63;;;1.60;99.90;;;;;;4936150;29;20031;-75
2021/03/21 07:14:32;;;;;;;447.27;268.17;;;1.50;99.90;;;;;;4937646;29;20132;-66
2021/03/21 07:17:35;;;;;;;174.32;92.07;;;1.50;99.90;;;;;;4935748;29;20454;-68
2021/03/21 07:20:22;;;;;;;81.75;40.88;;;1.70;99.90;;;;;;4932278;29;20058;-68
2021/03/21 07:23:24;;;;;;;62.63;36.53;;;1.80;99.90;;;;;;4958211;29;20039;-68
2021/03/21 07:26:19;;;;;;;73.65;44.08;;;1.90;99.90;;;;;;4959437;28;20027;-69
2021/03/21 07:28:53;;;;;;;185.00;92.78;;;1.90;99.90;;;;;;4961025;29;20020;-76
2021/03/21 07:31:38;;;;;;;;;;;1.70;99.90;;;;;;4961109;29;20024;-66
2021/03/21 07:34:23;;;;;;;123.35;70.28;;;1.90;99.90;;;;;;4961841;29;19910;-74
2021/03/21 07:37:10;;;;;;;134.02;62.70;;;1.90;99.90;;;;;;4960631;29;20035;-75
2021/03/21 07:40:03;;;;;;;102.53;51.70;;;2.00;99.90;;;;;;4959845;29;20031;-67
2021/03/21 07:42:52;;;;;;;100.50;48.95;;;2.10;99.90;;;;;;4955861;29;20059;-75
2021/03/21 07:45:33;;;;;;;183.77;85.95;;;1.90;99.90;;;;;;4957445;28;20035;-68
2021/03/21 07:48:20;;;;;;;165.77;89.68;;;1.90;99.90;;;;;;4959215;29;20027;-75
2021/03/21 07:51:05;;;;;;;110.38;65.55;;;2.10;99.90;;;;;;4961911;28;20050;-69
2021/03/21 07:53:50;;;;;;;110.75;59.78;;;2.20;99.90;;;;;;4978680;28;20085;-67
2021/03/21 07:56:23;;;;;;;91.50;47.95;;;1.80;99.90;;;;;;4979454;28;20062;-77
2021/03/21 07:58:55;;;;;;;136.45;68.47;;;1.80;99.90;;;;;;4977024;28;20038;-78
2021/03/21 08:01:22;;;;;;;123.03;60.22;;;1.70;99.90;;;;;;4976601;28;20031;-67
2021/03/21 08:04:08;;;;;;;96.95;50.92;;;2.00;99.90;;;;;;4976753;28;20027;-77
2021/03/21 08:06:47;;;;;;;127.60;69.20;;;2.00;99.90;;;;;;4977473;28;20023;-73
2021/03/21 08:09:22;;;;;;;102.32;51.78;;;1.90;99.90;;;;;;4975350;28;20027;-67
2021/03/21 08:12:11;;;;;;;247.88;123.45;;;2.10;99.90;;;;;;4989795;28;20400;-76
2021/03/21 08:15:05;;;;;;;129.82;78.72;;;2.10;99.90;;;;;;4995712;28;20030;-65
2021/03/21 08:17:39;;;;;;;137.70;69.40;;;2.00;99.90;;;;;;4990836;28;20408;-74
2021/03/21 08:20:20;;;;;;;109.38;59.42;;;2.00;99.90;;;;;;4996168;28;20477;-66
2021/03/21 08:22:47;;;;;;;134.68;66.78;;;1.60;99.90;;;;;;4994195;28;20037;-69
2021/03/21 08:25:29;;;;;;;107.50;59.50;;;1.80;99.90;;;;;;4987415;28;20034;-68
2021/03/21 08:27:55;;;;;;;99.90;67.57;;;1.90;99.90;;;;;;4977014;28;20114;-80
2021/03/21 08:30:26;;;;;;;72.00;48.67;;;1.70;99.90;;;;;;4975840;28;20105;-67
2021/03/21 08:33:03;;;;;;;69.82;47.78;;;1.60;99.90;;;;;;4988395;28;20078;-66
2021/03/21 08:35:33;;;;;;;87.65;49.88;;;1.60;99.90;;;;;;4986578;28;20026;-66
2021/03/21 08:38:16;;;;;;;85.20;48.63;;;1.60;99.90;;;;;;4996291;28;20485;-67
2021/03/21 08:40:44;;;;;;;117.10;61.53;;;1.70;99.90;;;;;;4984582;28;20026;-67
2021/03/21 08:43:21;;;;;;;99.93;55.15;;;1.80;99.90;;;;;;4983204;28;20019;-67
2021/03/21 08:45:55;;;;;;;87.97;45.28;;;1.80;99.90;;;;;;4976524;28;20027;-64
2021/03/21 08:48:25;;;;;;;;;;;1.90;99.90;;;;;;4976595;28;20397;-71
2021/03/21 08:50:55;;;;;;;92.95;48.83;;;2.00;99.90;;;;;;4976401;28;19918;-74
2021/03/21 08:53:37;;;;;;;93.00;52.38;;;2.10;99.90;;;;;;4974228;28;20098;-65
2021/03/21 08:56:26;;;;;;;95.60;53.35;;;2.00;99.90;;;;;;4976336;28;20023;-76
2021/03/21 08:59:09;;;;;;;85.50;52.90;;;1.90;99.90;;;;;;4973665;28;20082;-64
2021/03/21 09:01:35;;;;;;;75.25;45.10;;;1.70;99.90;;;;;;4977469;28;20070;-69
2021/03/21 09:04:17;;;;;;;80.63;43.67;;;1.60;99.90;;;;;;4976647;28;20390;-76
2021/03/21 09:06:45;;;;;;;55.15;37.38;;;1.80;99.90;;;;;;4977460;28;20022;-75
2021/03/21 09:09:23;;;;;;;68.97;42.17;;;1.80;99.90;;;;;;4976907;28;20362;-70
2021/03/21 09:12:18;;;;;;;62.72;41.25;;;1.80;99.90;;;;;;4977409;28;20050;-76
2021/03/21 09:14:44;;;;;;;51.20;32.30;;;1.90;99.90;;;;;;4976905;28;20027;-72
2021/03/21 09:17:23;;;;;;;50.97;33.25;;;1.90;99.90;;;;;;4978392;28;20031;-66
2021/03/21 09:19:55;;;;;;;68.03;40.80;;;1.90;99.90;;;;;;4978041;28;20125;-76
2021/03/21 09:22:34;;;;;;;56.92;38.67;;;1.80;99.90;;;;;;4977885;28;20027;-78
2021/03/21 09:25:15;;;;;;;146.35;79.35;;;1.80;99.90;;;;;;4976467;28;20027;-75
2021/03/21 09:27:43;;;;;;;128.50;79.00;;;1.60;99.90;;;;;;4977182;28;20027;-74
2021/03/21 09:30:28;;;;;;;74.20;50.03;;;1.60;99.90;;;;;;4983717;28;20023;-66
2021/03/21 09:33:00;;;;;;;132.05;90.18;;;1.60;99.90;;;;;;4985105;28;20034;-68
2021/03/21 09:35:36;;;;;;;70.00;45.63;;;1.50;99.90;;;;;;4986900;28;20018;-65
2021/03/21 09:38:25;;;;;;;116.65;75.00;;;1.40;99.90;;;;;;4983780;28;20019;-65
2021/03/21 09:40:55;;;;;;;58.47;43.78;;;1.60;99.90;;;;;;4987528;28;20465;-68
2021/03/21 09:43:28;;;;;;;51.70;34.90;;;1.50;99.90;;;;;;4986853;28;20034;-67
2021/03/21 09:46:28;;;;;;;48.58;33.13;;;1.50;99.90;;;;;;4980705;28;20473;-70
2021/03/21 09:49:05;;;;;;;60.67;40.08;;;1.40;99.90;;;;;;4979560;28;20023;-79
2021/03/21 09:51:46;;;;;;;74.18;41.78;;;1.50;99.90;;;;;;4978576;28;20055;-67
2021/03/21 09:54:32;;;;;;;86.28;46.95;;;1.50;99.90;;;;;;4982924;28;20026;-68
2021/03/21 09:57:39;;;;;;;80.63;41.42;;;1.40;99.90;;;;;;4978968;28;20027;-76
2021/03/21 10:00:08;;;;;;;83.53;45.47;;;1.50;99.90;;;;;;4936570;29;20066;-69
2021/03/21 10:02:49;;;;;;;107.68;60.65;;;1.70;99.90;;;;;;4953922;29;20051;-67
2021/03/21 10:05:30;;;;;;;66.93;40.10;;;1.70;99.90;;;;;;4971500;28;20117;-69
2021/03/21 10:08:26;;;;;;;86.15;49.88;;;1.80;99.90;;;;;;4986097;28;20030;-66
2021/03/21 10:10:59;;;;;;;77.53;49.30;;;1.80;99.90;;;;;;4987022;28;20050;-66
2021/03/21 10:13:41;;;;;;;86.80;53.80;;;1.70;99.90;;;;;;4985815;28;20029;-68
2021/03/21 10:16:15;;;;;;;76.95;44.45;;;1.60;99.90;;;;;;4986342;28;20127;-74
2021/03/21 10:18:46;;;;;;;;;;;1.80;99.90;;;;;;4986697;28;20014;-67
2021/03/21 10:21:29;;;;;;;51.45;32.40;;;2.00;99.90;;;;;;4985023;28;20372;-68
2021/03/21 10:23:59;;;;;;;76.43;47.85;;;2.10;99.90;;;;;;4985336;28;20030;-67
2021/03/21 10:26:31;;;;;;;67.22;40.88;;;2.10;99.90;;;;;;4986911;28;20015;-69
2021/03/21 10:29:22;;;;;;;86.97;50.00;;;2.20;99.90;;;;;;4988494;28;20030;-74
2021/03/21 10:31:48;;;;;;;114.43;59.03;;;2.30;99.90;;;;;;4999878;28;20031;-77
2021/03/21 10:34:17;;;;;;;121.72;67.60;;;2.20;99.90;;;;;;4998265;28;20105;-73
2021/03/21 10:36:46;;;;;;;82.90;48.80;;;2.30;99.90;;;;;;4996552;28;20081;-66
2021/03/21 10:39:23;;;;;;;54.92;34.70;;;2.30;99.90;;;;;;4996332;28;20084;-74
2021/03/21 10:42:00;;;;;;;67.53;40.17;;;2.20;99.90;;;;;;4994297;28;20027;-75
2021/03/21 10:44:32;;;;;;;92.07;54.60;;;2.40;99.90;;;;;;4996766;28;20037;-69
2021/03/21 10:47:21;;;;;;;85.13;50.25;;;2.40;99.90;;;;;;4997149;28;20026;-70
2021/03/21 10:49:54;;;;;;;55.20;34.25;;;2.30;99.90;;;;;;4986614;28;20041;-76
2021/03/21 10:52:29;;;;;;;63.63;35.92;;;2.40;99.90;;;;;;4995393;28;20060;-66
2021/03/21 10:55:18;;;;;;;119.72;62.30;;;2.40;99.90;;;;;;4985690;28;20030;-68
2021/03/21 10:57:45;;;;;;;98.82;51.83;;;2.60;99.90;;;;;;4982192;28;20042;-66
2021/03/21 11:00:14;;;;;;;100.82;53.70;;;2.60;99.90;;;;;;4983882;28;20054;-70
2021/03/21 11:02:52;;;;;;;102.93;62.10;;;2.40;99.90;;;;;;4994215;28;20105;-69
2021/03/21 11:05:32;;;;;;;106.25;57.28;;;2.70;99.90;;;;;;4997248;28;20026;-74
2021/03/21 11:08:13;;;;;;;104.20;67.70;;;2.80;99.90;;;;;;4999246;28;20376;-66
2021/03/21 11:10:52;;;;;;;88.75;56.38;;;2.70;99.90;;;;;;4998308;28;20009;-71
2021/03/21 11:13:26;;;;;;;62.13;39.55;;;;;;;;;;4996513;28;20030;-69
2021/03/21 11:15:52;;;;;;;106.95;60.08;;;2.60;99.90;;;;;;4993878;28;20030;-65
2021/03/21 11:18:21;;;;;;;78.93;58.10;;;2.70;99.90;;;;;;4992542;28;20027;-64
2021/03/21 11:20:48;;;;;;;209.07;127.40;;;2.70;99.90;;;;;;4992490;28;20034;-65
2021/03/21 11:23:22;;;;;;;73.95;52.78;;;2.70;99.90;;;;;;4991197;28;20417;-65
2021/03/21 11:25:49;;;;;;;62.03;46.13;;;2.70;99.90;;;;;;4992467;28;20054;-65
2021/03/21 11:28:36;;;;;;;60.53;43.72;;;2.70;99.90;;;;;;4992358;28;20022;-66
2021/03/21 11:31:07;;;;;;;61.97;42.08;;;2.80;99.90;;;;;;5009710;28;20037;-67
2021/03/21 11:33:40;;;;;;;58.90;39.63;;;2.80;99.90;;;;;;5001551;28;20487;-73
2021/03/21 11:36:10;;;;;;;76.88;49.95;;;2.70;99.90;;;;;;4995897;28;20048;-73
2021/03/21 11:38:40;;;;;;;82.53;49.90;;;2.80;99.90;;;;;;4996739;28;20070;-73
2021/03/21 11:41:23;;;;;;;70.82;41.70;;;2.80;99.90;;;;;;4996138;28;20465;-73
2021/03/21 11:43:50;;;;;;;293.83;129.90;;;2.90;99.90;;;;;;4995155;28;20029;-73
2021/03/21 11:46:29;;;;;;;60.17;37.40;;;2.80;99.90;;;;;;4994918;28;20026;-73
2021/03/21 11:48:57;;;;;;;51.85;34.10;;;2.90;99.90;;;;;;4995440;28;20023;-73
2021/03/21 11:51:25;;;;;;;56.90;39.63;;;2.80;99.90;;;;;;4994205;28;20050;-73
2021/03/21 11:53:52;;;;;;;56.22;40.30;;;2.90;99.90;;;;;;4994900;28;20022;-73
2021/03/21 11:56:53;;;;;;;43.70;30.48;;;2.90;99.90;;;;;;4994725;28;20015;-73
2021/03/21 11:59:48;;;;;;;65.50;41.08;;;3.00;99.90;;;;;;4994165;28;20053;-73
2021/03/21 12:02:28;;;;;;;203.15;86.35;;;3.00;99.90;;;;;;4992642;28;20049;-72
2021/03/21 12:04:55;;;;;;;249.23;105.68;;;3.00;99.90;;;;;;4994651;28;20377;-73
2021/03/21 12:07:27;;;;;;;235.63;100.40;;;2.90;99.90;;;;;;4995359;28;20038;-65
2021/03/21 12:09:53;;;;;;;271.17;112.70;;;3.00;99.90;;;;;;4994849;28;20049;-72
2021/03/21 12:12:34;;;;;;;263.05;122.80;;;3.00;99.90;;;;;;4994484;28;20025;-72
2021/03/21 12:15:01;;;;;;;62.17;41.55;;;3.10;99.90;;;;;;4994766;28;20022;-73
2021/03/21 12:17:27;;;;;;;56.65;39.90;;;3.10;99.90;;;;;;4995092;28;20022;-71
2021/03/21 12:19:55;;;;;;;54.00;35.90;;;3.20;99.90;;;;;;4994491;28;20480;-66
2021/03/21 12:22:34;;;;;;;50.78;35.67;;;3.30;99.90;;;;;;4994701;28;20088;-64
2021/03/21 12:25:11;;;;;;;49.33;33.65;;;3.40;99.90;;;;;;4995082;28;20535;-64
2021/03/21 12:27:39;;;;;;;56.22;36.03;;;3.50;99.90;;;;;;4992597;28;20454;-64
2021/03/21 12:30:14;;;;;;;43.13;28.95;;;3.60;99.90;;;;;;4994779;28;20042;-73
2021/03/21 12:32:42;;;;;;;50.83;34.55;;;3.50;99.90;;;;;;4994315;28;20034;-73
2021/03/21 12:35:39;;;;;;;51.42;33.63;;;3.60;99.90;;;;;;4993157;28;20488;-73
2021/03/21 12:38:08;;;;;;;44.85;31.05;;;3.70;99.90;;;;;;4994847;28;20022;-73
2021/03/21 12:40:42;;;;;;;53.30;36.97;;;3.70;99.90;;;;;;4994523;28;20468;-72
2021/03/21 12:43:30;;;;;;;47.90;33.10;;;3.80;99.90;;;;;;4994356;28;20023;-66
2021/03/21 12:46:07;;;;;;;50.55;35.10;;;3.80;99.90;;;;;;4995517;28;20034;-72
2021/03/21 12:48:46;;;;;;;48.17;32.35;;;3.70;99.90;;;;;;4997922;28;20413;-66
2021/03/21 12:51:28;;;;;;;68.95;45.70;;;3.80;99.90;;;;;;4997857;28;20124;-66
2021/03/21 12:53:54;;;;;;;39.08;26.67;;;3.80;99.90;;;;;;4997937;28;20021;-71
2021/03/21 12:56:20;;;;;;;47.35;32.63;;;3.70;99.90;;;;;;4997952;28;20105;-73
2021/03/21 12:58:47;;;;;;;48.63;32.40;;;3.70;99.90;;;;;;4998531;28;20037;-65
2021/03/21 13:01:13;;;;;;;49.53;35.42;;;3.80;99.90;;;;;;4998407;28;20108;-72
2021/03/21 13:03:39;;;;;;;51.08;35.72;;;3.70;99.90;;;;;;4998136;28;20415;-64
2021/03/21 13:06:06;;;;;;;42.65;28.98;;;3.70;99.90;;;;;;4997367;28;20026;-69
2021/03/21 13:08:33;;;;;;;67.25;44.53;;;3.70;99.90;;;;;;4997495;28;20113;-66
2021/03/21 13:11:02;;;;;;;59.10;38.25;;;3.60;99.90;;;;;;4997582;28;20027;-72
2021/03/21 13:13:29;;;;;;;45.38;30.85;;;3.70;99.90;;;;;;4997229;28;20101;-71
2021/03/21 13:15:56;;;;;;;105.80;65.50;;;3.70;99.90;;;;;;4997184;28;20376;-71
2021/03/21 13:18:24;;;;;;;38.83;27.38;;;3.60;99.90;;;;;;4997103;28;20404;-65
2021/03/21 13:20:53;;;;;;;65.43;42.03;;;3.70;99.90;;;;;;4998733;28;20077;-71
2021/03/21 13:23:20;;;;;;;47.72;31.95;;;3.70;99.90;;;;;;4997743;28;20030;-71
2021/03/21 13:25:46;;;;;;;70.68;45.72;;;3.80;99.90;;;;;;4998089;28;20026;-63